Time;durP1;ratioP1;P1;durP2;ratioP2;P2;SDS_P1;SDS_P2;PMS_P1;PMS_P2;Temp;Humidity;BMP_temperature;BMP_pressure;BME280_temperature;BME280_humidity;BME280_pressure;Samples;Min_cycle;Max_cycle;Signal;HPM_P1;HPM_P2
2021/12/27 00:01:07;;;;;;;38.55;15.48;;;3.60;99.90;;;;;;5012951;28;20021;-56
2021/12/27 00:03:33;;;;;;;38.42;15.60;;;3.50;99.90;;;;;;5012697;28;20476;-56
2021/12/27 00:05:58;;;;;;;39.47;13.60;;;3.60;99.90;;;;;;5012901;28;20045;-58
2021/12/27 00:08:24;;;;;;;42.40;14.63;;;3.50;99.90;;;;;;5012346;28;20034;-60
2021/12/27 00:10:50;;;;;;;37.92;14.75;;;3.40;99.90;;;;;;5012470;28;20484;-58
2021/12/27 00:13:16;;;;;;;39.97;15.48;;;3.40;99.90;;;;;;5013600;28;20118;-57
2021/12/27 00:15:43;;;;;;;41.67;15.57;;;3.30;99.90;;;;;;5012609;28;20109;-58
2021/12/27 00:18:09;;;;;;;43.75;16.60;;;3.30;99.90;;;;;;5013633;28;20026;-57
2021/12/27 00:20:35;;;;;;;36.58;14.68;;;3.30;99.90;;;;;;5012617;28;20026;-55
2021/12/27 00:23:01;;;;;;;36.35;15.18;;;3.40;99.90;;;;;;5012275;28;20164;-58
2021/12/27 00:25:28;;;;;;;39.47;14.93;;;3.30;99.90;;;;;;5012504;28;20022;-60
2021/12/27 00:27:55;;;;;;;42.78;15.32;;;3.30;99.90;;;;;;5013422;28;20033;-56
2021/12/27 00:30:23;;;;;;;38.42;14.98;;;3.30;99.90;;;;;;5013451;28;20034;-58
2021/12/27 00:32:50;;;;;;;38.75;15.07;;;3.20;99.90;;;;;;5012626;28;20032;-58
2021/12/27 00:35:23;;;;;;;37.97;15.48;;;3.40;99.90;;;;;;5013600;28;20029;-58
2021/12/27 00:37:49;;;;;;;35.42;13.88;;;3.30;99.90;;;;;;5013367;28;20025;-58
2021/12/27 00:40:15;;;;;;;41.17;15.80;;;3.30;99.90;;;;;;5013638;28;20021;-59
2021/12/27 00:42:41;;;;;;;39.67;14.73;;;3.20;99.90;;;;;;5013406;28;20029;-57
2021/12/27 00:45:07;;;;;;;40.75;14.88;;;3.20;99.90;;;;;;5012034;28;20120;-60
2021/12/27 00:47:33;;;;;;;45.22;15.15;;;3.30;99.90;;;;;;5012410;28;20030;-58
2021/12/27 00:49:59;;;;;;;37.42;13.23;;;3.20;99.90;;;;;;5013172;28;20380;-56
2021/12/27 00:52:25;;;;;;;42.58;15.25;;;3.20;99.90;;;;;;5013324;28;20117;-58
2021/12/27 00:54:50;;;;;;;40.70;15.35;;;3.20;99.90;;;;;;5011828;28;20030;-57
2021/12/27 00:57:16;;;;;;;42.95;14.65;;;3.30;99.90;;;;;;5012288;28;20053;-55
2021/12/27 00:59:41;;;;;;;39.47;14.60;;;3.30;99.90;;;;;;5011833;28;20032;-54
2021/12/27 01:02:07;;;;;;;42.25;15.63;;;3.20;99.90;;;;;;5011833;28;20026;-57
2021/12/27 01:04:33;;;;;;;35.25;13.45;;;3.20;99.90;;;;;;5013096;28;20439;-56
2021/12/27 01:06:58;;;;;;;44.70;16.42;;;3.30;99.90;;;;;;5011822;28;20026;-57
2021/12/27 01:09:39;;;;;;;35.67;13.48;;;3.30;99.90;;;;;;5013159;28;20069;-55
2021/12/27 01:12:24;;;;;;;42.40;14.75;;;3.30;99.90;;;;;;5013124;28;20384;-57
2021/12/27 01:17:35;;;;;;;41.90;15.65;;;3.20;99.90;;;;;;5014043;28;20022;-58
2021/12/27 01:20:01;;;;;;;44.13;15.77;;;3.10;99.90;;;;;;5015894;28;20029;-57
2021/12/27 01:22:26;;;;;;;42.33;15.02;;;3.10;99.90;;;;;;5015602;28;20026;-58
2021/12/27 01:24:52;;;;;;;39.13;14.93;;;3.10;99.90;;;;;;5017178;28;20129;-58
2021/12/27 01:27:17;;;;;;;43.25;15.70;;;3.10;99.90;;;;;;5015809;28;20117;-55
2021/12/27 01:29:43;;;;;;;45.90;16.42;;;3.10;99.90;;;;;;5016950;28;20026;-56
2021/12/27 01:32:09;;;;;;;43.65;16.00;;;3.10;99.90;;;;;;5015462;28;20100;-57
2021/12/27 01:34:34;;;;;;;42.13;18.08;;;3.10;99.90;;;;;;5015368;28;20033;-53
2021/12/27 01:37:00;;;;;;;38.70;15.43;;;3.20;99.90;;;;;;5015483;28;20029;-54
2021/12/27 01:39:26;;;;;;;43.78;15.93;;;3.20;99.90;;;;;;5016214;28;20033;-58
2021/12/27 01:41:52;;;;;;;38.25;14.68;;;3.20;99.90;;;;;;5015514;28;20022;-65
2021/12/27 01:44:18;;;;;;;46.65;15.45;;;3.30;99.90;;;;;;5015718;28;20026;-60
2021/12/27 01:46:44;;;;;;;45.35;17.45;;;3.30;99.90;;;;;;5017176;28;20034;-57
2021/12/27 01:49:10;;;;;;;46.40;15.68;;;3.20;99.90;;;;;;5016388;28;20458;-55
2021/12/27 01:51:38;;;;;;;38.35;15.57;;;3.30;99.90;;;;;;5016324;28;20492;-57
2021/12/27 01:54:04;;;;;;;43.72;15.30;;;3.30;99.90;;;;;;5014936;28;20026;-58
2021/12/27 01:56:30;;;;;;;36.45;15.00;;;3.30;99.90;;;;;;5014939;28;20060;-58
2021/12/27 01:58:56;;;;;;;33.38;14.80;;;3.20;99.90;;;;;;5015011;28;20049;-58
2021/12/27 02:01:22;;;;;;;41.33;15.80;;;3.20;99.90;;;;;;5015154;28;20044;-56
2021/12/27 02:03:58;;;;;;;42.33;14.98;;;3.20;99.90;;;;;;5016171;28;20026;-57
2021/12/27 02:06:27;;;;;;;42.33;14.10;;;3.20;99.90;;;;;;5016002;28;20025;-56
2021/12/27 02:08:53;;;;;;;42.28;16.00;;;3.20;99.90;;;;;;5014755;28;20050;-53
2021/12/27 02:11:20;;;;;;;44.47;16.15;;;3.10;99.90;;;;;;5014626;28;20026;-58
2021/12/27 02:13:46;;;;;;;43.42;15.27;;;3.10;99.90;;;;;;5014746;28;20052;-57
2021/12/27 02:16:20;;;;;;;41.17;15.90;;;3.10;99.90;;;;;;5015757;28;20026;-58
2021/12/27 02:18:48;;;;;;;45.90;15.90;;;3.10;99.90;;;;;;5015333;28;20133;-58
2021/12/27 02:21:14;;;;;;;46.90;16.85;;;3.10;99.90;;;;;;5015625;28;20088;-57
2021/12/27 02:23:41;;;;;;;43.00;16.60;;;3.10;99.90;;;;;;5015706;28;20489;-57
2021/12/27 02:26:08;;;;;;;42.42;16.02;;;3.10;99.90;;;;;;5015396;28;20022;-56
2021/12/27 02:28:34;;;;;;;47.40;15.52;;;3.10;99.90;;;;;;5015270;28;20030;-57
2021/12/27 02:30:59;;;;;;;47.75;16.42;;;3.10;99.90;;;;;;5015036;28;20036;-58
2021/12/27 02:33:25;;;;;;;47.00;16.50;;;3.00;99.90;;;;;;5015365;28;20026;-58
2021/12/27 02:35:54;;;;;;;43.47;15.23;;;3.00;99.90;;;;;;5015392;28;20025;-58
2021/12/27 02:38:23;;;;;;;48.38;15.95;;;3.00;99.90;;;;;;5015458;28;20018;-58
2021/12/27 02:40:51;;;;;;;48.03;17.00;;;3.00;99.90;;;;;;5014059;28;20026;-58
2021/12/27 02:43:23;;;;;;;43.75;16.63;;;2.90;99.90;;;;;;5015288;28;20515;-53
2021/12/27 02:45:55;;;;;;;45.45;15.75;;;2.90;99.90;;;;;;5013993;28;20047;-56
2021/12/27 02:48:26;;;;;;;49.25;17.00;;;3.00;99.90;;;;;;5014989;28;20083;-57
2021/12/27 02:50:54;;;;;;;39.33;15.00;;;2.90;99.90;;;;;;5013784;28;20080;-57
2021/12/27 02:53:20;;;;;;;45.03;14.55;;;2.90;99.90;;;;;;5013849;28;20257;-56
2021/12/27 02:55:51;;;;;;;42.17;13.65;;;2.90;99.90;;;;;;5013800;28;20096;-58
2021/12/27 02:58:17;;;;;;;40.13;14.48;;;2.80;99.90;;;;;;5015045;28;20036;-58
2021/12/27 03:00:49;;;;;;;44.90;15.95;;;2.80;99.90;;;;;;5013717;28;20093;-57
2021/12/27 03:03:15;;;;;;;48.05;14.98;;;2.90;99.90;;;;;;5014041;28;20049;-57
2021/12/27 03:05:42;;;;;;;43.38;14.68;;;3.00;99.90;;;;;;5014014;28;20048;-57
2021/12/27 03:08:13;;;;;;;36.80;14.93;;;3.00;99.90;;;;;;5014851;28;20025;-56
2021/12/27 03:10:41;;;;;;;33.53;13.07;;;3.10;99.90;;;;;;5014885;28;20535;-56
2021/12/27 03:13:07;;;;;;;41.88;14.07;;;3.10;99.90;;;;;;5013460;28;20133;-57
2021/12/27 03:15:33;;;;;;;34.45;13.27;;;3.10;99.90;;;;;;5013385;28;20071;-57
2021/12/27 03:17:58;;;;;;;29.80;11.90;;;3.10;99.90;;;;;;5013511;28;20022;-54
2021/12/27 03:20:26;;;;;;;29.77;13.55;;;3.10;99.90;;;;;;5013462;28;20021;-58
2021/12/27 03:22:52;;;;;;;32.75;13.85;;;3.10;99.90;;;;;;5013644;28;20030;-58
2021/12/27 03:25:21;;;;;;;28.05;11.77;;;3.10;99.90;;;;;;5013339;28;20030;-57
2021/12/27 03:27:48;;;;;;;25.98;10.32;;;3.10;99.90;;;;;;5014573;28;20034;-56
2021/12/27 03:30:22;;;;;;;26.77;10.73;;;3.10;99.90;;;;;;5013671;28;20045;-57
2021/12/27 03:32:48;;;;;;;26.40;10.35;;;3.20;99.90;;;;;;5014826;28;20033;-58
2021/12/27 03:35:18;;;;;;;22.67;9.18;;;3.10;99.90;;;;;;5013017;28;20030;-56
2021/12/27 03:37:46;;;;;;;25.13;9.32;;;3.10;99.90;;;;;;5014576;28;20040;-54
2021/12/27 03:40:15;;;;;;;22.33;9.27;;;3.20;99.90;;;;;;5014048;28;20442;-55
2021/12/27 03:42:41;;;;;;;23.83;8.45;;;3.10;99.90;;;;;;5014388;28;20029;-56
2021/12/27 03:45:09;;;;;;;27.23;9.38;;;3.20;99.90;;;;;;5013289;28;20025;-53
2021/12/27 03:47:35;;;;;;;24.40;8.63;;;3.20;99.90;;;;;;5012763;28;20029;-55
2021/12/27 03:50:02;;;;;;;23.48;8.73;;;3.20;99.90;;;;;;5014038;28;20107;-54
2021/12/27 03:52:27;;;;;;;26.42;9.15;;;3.20;99.90;;;;;;5014119;28;20109;-58
2021/12/27 03:54:53;;;;;;;22.10;8.40;;;3.30;99.90;;;;;;5012820;28;20121;-57
2021/12/27 03:57:18;;;;;;;25.33;8.70;;;3.30;99.90;;;;;;5014013;28;20125;-57
2021/12/27 04:02:11;;;;;;;24.92;8.05;;;3.40;99.90;;;;;;5013924;28;20069;-57
2021/12/27 04:04:37;;;;;;;23.60;9.10;;;3.50;99.90;;;;;;5013583;28;20033;-54
2021/12/27 04:07:04;;;;;;;20.17;8.25;;;3.40;99.90;;;;;;5013776;28;20026;-61
2021/12/27 04:09:30;;;;;;;25.48;8.90;;;3.60;99.90;;;;;;5013931;28;20022;-56
2021/12/27 04:11:56;;;;;;;20.20;7.95;;;3.60;99.90;;;;;;5012500;28;20033;-56
2021/12/27 04:14:21;;;;;;;21.27;8.07;;;3.70;99.90;;;;;;5013658;28;20026;-57
2021/12/27 04:16:47;;;;;;;20.85;8.20;;;3.70;99.90;;;;;;5012716;28;20476;-54
2021/12/27 04:19:16;;;;;;;25.45;7.70;;;3.70;99.90;;;;;;5013733;28;20018;-56
2021/12/27 04:21:41;;;;;;;23.63;7.93;;;3.70;99.90;;;;;;5013734;28;20031;-54
2021/12/27 04:24:07;;;;;;;23.35;7.63;;;3.70;99.90;;;;;;5012378;28;20026;-54
2021/12/27 04:26:33;;;;;;;21.08;8.43;;;3.70;99.90;;;;;;5012686;28;20100;-53
2021/12/27 04:28:59;;;;;;;21.30;7.70;;;3.70;99.90;;;;;;5013564;28;20022;-58
2021/12/27 04:31:24;;;;;;;21.45;7.88;;;3.80;99.90;;;;;;5012593;28;20033;-55
2021/12/27 04:33:52;;;;;;;21.20;7.70;;;3.90;99.90;;;;;;5013369;28;20088;-57
2021/12/27 04:36:18;;;;;;;27.20;8.77;;;3.80;99.90;;;;;;5012751;28;20069;-58
2021/12/27 04:38:44;;;;;;;20.30;8.07;;;3.90;99.90;;;;;;5012620;28;20026;-57
2021/12/27 04:41:12;;;;;;;21.48;8.30;;;4.00;99.90;;;;;;5013791;28;20073;-58
2021/12/27 04:43:38;;;;;;;19.98;7.72;;;4.00;99.90;;;;;;5013440;28;20084;-56
2021/12/27 04:46:06;;;;;;;32.25;8.40;;;4.10;99.90;;;;;;5013577;28;20022;-54
2021/12/27 04:48:32;;;;;;;24.20;7.50;;;4.10;99.90;;;;;;5013508;28;20030;-58
2021/12/27 04:50:58;;;;;;;30.33;8.43;;;4.00;99.90;;;;;;5012040;28;20041;-54
2021/12/27 04:53:23;;;;;;;25.30;7.20;;;4.00;99.90;;;;;;5014245;28;20029;-54
2021/12/27 04:55:49;;;;;;;20.40;7.85;;;3.90;99.90;;;;;;5017292;28;20542;-58
2021/12/27 04:58:17;;;;;;;23.65;7.75;;;3.80;99.90;;;;;;5017321;28;20559;-57
2021/12/27 05:00:44;;;;;;;47.80;10.98;;;3.80;99.90;;;;;;5017274;28;20093;-58
2021/12/27 05:03:10;;;;;;;37.70;8.68;;;3.80;99.90;;;;;;5016009;28;20026;-55
2021/12/27 05:05:37;;;;;;;20.02;7.10;;;3.60;99.90;;;;;;5015837;28;20120;-57
2021/12/27 05:08:03;;;;;;;66.25;14.65;;;3.60;99.90;;;;;;5017186;28;20034;-58
2021/12/27 05:10:30;;;;;;;56.65;10.25;;;3.60;99.90;;;;;;5017390;28;20025;-55
2021/12/27 05:12:56;;;;;;;116.88;16.55;;;3.60;99.90;;;;;;5017129;28;20036;-58
2021/12/27 05:15:23;;;;;;;45.45;9.15;;;3.50;99.90;;;;;;5016894;28;20038;-53
2021/12/27 05:17:48;;;;;;;23.63;7.72;;;3.60;99.90;;;;;;5015592;28;20022;-55
2021/12/27 05:20:14;;;;;;;19.70;7.80;;;3.50;99.90;;;;;;5016981;28;20369;-58
2021/12/27 05:22:40;;;;;;;33.83;8.48;;;3.80;99.90;;;;;;5016378;28;20057;-55
2021/12/27 05:25:09;;;;;;;25.77;7.93;;;3.90;99.90;;;;;;5016770;28;20056;-54
2021/12/27 05:27:36;;;;;;;24.67;8.35;;;3.80;99.90;;;;;;5016652;28;20050;-56
2021/12/27 05:30:02;;;;;;;40.05;9.60;;;3.90;99.90;;;;;;5016959;28;20206;-58
2021/12/27 05:32:28;;;;;;;30.42;9.20;;;3.80;99.90;;;;;;5017193;28;20075;-56
2021/12/27 05:34:53;;;;;;;22.90;7.90;;;3.70;99.90;;;;;;5016429;28;20034;-57
2021/12/27 05:37:19;;;;;;;31.70;8.75;;;3.70;99.90;;;;;;5015532;28;20029;-55
2021/12/27 05:39:45;;;;;;;57.55;11.25;;;3.70;99.90;;;;;;5015249;28;20073;-55
2021/12/27 05:42:11;;;;;;;51.90;9.52;;;3.70;99.90;;;;;;5016389;28;20030;-58
2021/12/27 05:44:36;;;;;;;52.35;9.88;;;3.60;99.90;;;;;;5015457;28;20037;-58
2021/12/27 05:47:02;;;;;;;31.95;8.13;;;3.50;99.90;;;;;;5016313;28;20026;-58
2021/12/27 05:49:28;;;;;;;81.57;15.63;;;3.50;99.90;;;;;;5016341;28;20061;-58
2021/12/27 05:51:54;;;;;;;33.20;8.95;;;3.50;99.90;;;;;;5016454;28;20503;-56
2021/12/27 05:54:20;;;;;;;21.02;8.27;;;3.50;99.90;;;;;;5016232;28;20018;-58
2021/12/27 05:56:47;;;;;;;27.98;8.80;;;3.60;99.90;;;;;;5014895;28;20101;-58
2021/12/27 05:59:15;;;;;;;35.08;10.00;;;3.70;99.90;;;;;;5016151;28;20022;-58
2021/12/27 06:01:41;;;;;;;24.33;8.25;;;3.70;99.90;;;;;;5015179;28;20022;-58
2021/12/27 06:04:06;;;;;;;20.92;7.97;;;3.80;99.90;;;;;;5014689;28;20026;-56
2021/12/27 06:06:32;;;;;;;36.30;9.10;;;3.80;99.90;;;;;;5014962;28;20033;-58
2021/12/27 06:08:58;;;;;;;22.63;8.50;;;3.90;99.90;;;;;;5016074;28;20057;-58
2021/12/27 06:11:23;;;;;;;20.42;7.75;;;3.90;99.90;;;;;;5016374;28;20033;-58
2021/12/27 06:13:49;;;;;;;40.38;10.20;;;4.00;99.90;;;;;;5016057;28;20037;-57
2021/12/27 06:16:15;;;;;;;38.85;7.68;;;4.00;99.90;;;;;;5015988;28;20472;-56
2021/12/27 06:18:40;;;;;;;29.02;8.88;;;3.90;99.90;;;;;;5016153;28;20487;-57
2021/12/27 06:21:06;;;;;;;16.13;7.63;;;4.00;99.90;;;;;;5015777;28;20033;-56
2021/12/27 06:23:32;;;;;;;32.20;8.43;;;4.00;99.90;;;;;;5014764;28;20025;-58
2021/12/27 06:25:59;;;;;;;18.90;7.72;;;3.90;99.90;;;;;;5014369;28;20030;-57
2021/12/27 06:28:24;;;;;;;29.70;7.32;;;3.90;99.90;;;;;;5015604;28;20022;-58
2021/12/27 06:30:50;;;;;;;25.25;7.10;;;3.90;99.90;;;;;;5015590;28;20018;-56
2021/12/27 06:33:16;;;;;;;19.83;7.38;;;3.90;99.90;;;;;;5015579;28;20053;-58
2021/12/27 06:35:42;;;;;;;25.48;9.82;;;3.90;99.90;;;;;;5015359;28;20088;-56
2021/12/27 06:38:08;;;;;;;68.35;11.45;;;3.90;99.90;;;;;;5015436;28;20049;-58
2021/12/27 06:40:35;;;;;;;46.33;8.90;;;3.90;99.90;;;;;;5014107;28;20440;-57
2021/12/27 06:43:00;;;;;;;16.75;6.75;;;3.90;99.90;;;;;;5015692;28;20014;-56
2021/12/27 06:45:27;;;;;;;31.55;9.93;;;3.90;99.90;;;;;;5014427;28;20392;-57
2021/12/27 06:47:52;;;;;;;61.00;9.52;;;3.90;99.90;;;;;;5015058;28;20052;-58
2021/12/27 06:50:18;;;;;;;83.07;11.25;;;3.90;99.90;;;;;;5013857;28;20030;-56
2021/12/27 06:52:44;;;;;;;21.95;8.32;;;3.90;99.90;;;;;;5015802;28;20155;-58
2021/12/27 06:55:11;;;;;;;53.05;8.98;;;3.90;99.90;;;;;;5015028;28;20095;-58
2021/12/27 06:57:37;;;;;;;21.67;7.25;;;3.80;99.90;;;;;;5014090;28;20033;-57
2021/12/27 07:00:06;;;;;;;56.28;9.48;;;3.80;99.90;;;;;;5015040;28;20025;-55
2021/12/27 07:02:32;;;;;;;63.58;10.48;;;3.80;99.90;;;;;;5013854;28;20026;-57
2021/12/27 07:04:58;;;;;;;42.47;8.57;;;3.70;99.90;;;;;;5013763;28;20028;-57
2021/12/27 07:07:24;;;;;;;168.40;21.95;;;3.80;99.90;;;;;;5013620;28;20128;-58
2021/12/27 07:09:49;;;;;;;25.67;8.07;;;3.70;99.90;;;;;;5014554;28;20090;-53
2021/12/27 07:12:15;;;;;;;52.75;10.45;;;3.70;99.90;;;;;;5013565;28;20030;-58
2021/12/27 07:14:42;;;;;;;24.35;8.30;;;3.70;99.90;;;;;;5014634;28;20064;-56
2021/12/27 07:17:07;;;;;;;36.00;10.43;;;3.80;99.90;;;;;;5014147;28;20022;-58
2021/12/27 07:19:33;;;;;;;19.77;7.68;;;3.80;99.90;;;;;;5014635;28;20044;-55
2021/12/27 07:21:59;;;;;;;31.17;9.10;;;3.80;99.90;;;;;;5014597;28;20556;-58
2021/12/27 07:24:25;;;;;;;21.92;8.68;;;4.00;99.90;;;;;;5013613;28;20034;-56
2021/12/27 07:26:52;;;;;;;19.83;7.32;;;3.90;99.90;;;;;;5014446;28;20029;-56
2021/12/27 07:29:18;;;;;;;19.88;7.80;;;4.00;99.90;;;;;;5013235;28;20399;-56
2021/12/27 07:31:44;;;;;;;16.67;7.00;;;3.90;99.90;;;;;;5014365;28;20026;-57
2021/12/27 07:34:10;;;;;;;18.98;6.85;;;3.90;99.90;;;;;;5013074;28;20025;-58
2021/12/27 07:36:36;;;;;;;20.92;7.43;;;3.90;99.90;;;;;;5014341;28;20049;-58
2021/12/27 07:39:02;;;;;;;27.67;10.57;;;4.00;99.90;;;;;;5014378;28;20030;-58
2021/12/27 07:41:27;;;;;;;23.00;10.07;;;4.00;99.90;;;;;;5014334;28;20028;-55
2021/12/27 07:43:55;;;;;;;17.73;7.10;;;4.00;99.90;;;;;;5013043;28;20030;-57
2021/12/27 07:46:21;;;;;;;26.85;8.57;;;4.00;99.90;;;;;;5014010;28;20101;-57
2021/12/27 07:48:46;;;;;;;21.35;7.80;;;3.90;99.90;;;;;;5013281;28;20442;-58
2021/12/27 07:51:12;;;;;;;25.92;8.38;;;3.90;99.90;;;;;;5013967;28;20558;-57
2021/12/27 07:53:38;;;;;;;17.58;7.10;;;3.80;99.90;;;;;;5012801;28;20028;-58
2021/12/27 07:56:06;;;;;;;15.27;6.75;;;3.90;99.90;;;;;;5012724;28;20022;-58
2021/12/27 07:58:31;;;;;;;20.50;8.70;;;3.90;99.90;;;;;;5014014;28;20089;-58
2021/12/27 08:00:57;;;;;;;28.63;8.68;;;3.90;99.90;;;;;;5014498;28;20022;-57
2021/12/27 08:03:23;;;;;;;41.25;8.27;;;3.90;99.90;;;;;;5013020;28;20057;-51
2021/12/27 08:05:49;;;;;;;25.83;7.82;;;3.90;99.90;;;;;;5014048;28;20092;-58
2021/12/27 08:08:15;;;;;;;31.40;8.10;;;3.90;99.90;;;;;;5013889;28;20025;-58
2021/12/27 08:10:42;;;;;;;30.00;8.02;;;4.00;99.90;;;;;;5013351;28;20049;-58
2021/12/27 08:13:07;;;;;;;35.75;8.95;;;4.00;99.90;;;;;;5012579;28;20049;-58
2021/12/27 08:15:33;;;;;;;89.35;12.15;;;4.00;99.90;;;;;;5013899;28;20058;-58
2021/12/27 08:17:59;;;;;;;41.88;10.43;;;4.00;99.90;;;;;;5013904;28;20026;-57
2021/12/27 08:20:25;;;;;;;16.60;6.75;;;3.90;99.90;;;;;;5013706;28;20022;-58
2021/12/27 08:22:51;;;;;;;26.73;8.00;;;3.90;99.90;;;;;;5012413;28;20021;-56
2021/12/27 08:25:16;;;;;;;34.15;8.30;;;4.00;99.90;;;;;;5017521;28;20033;-56
2021/12/27 08:27:43;;;;;;;20.65;8.18;;;4.00;99.90;;;;;;5031480;28;20025;-57
2021/12/27 08:30:10;;;;;;;26.92;8.80;;;4.00;99.90;;;;;;5033684;28;20081;-59
2021/12/27 08:32:39;;;;;;;19.80;7.13;;;4.00;99.90;;;;;;5033301;28;20100;-57
2021/12/27 08:35:05;;;;;;;26.85;8.52;;;4.10;99.90;;;;;;5033286;28;20102;-58
2021/12/27 08:37:32;;;;;;;23.60;9.20;;;4.10;99.90;;;;;;5031865;28;20022;-58
2021/12/27 08:39:59;;;;;;;27.92;9.18;;;4.10;99.90;;;;;;5032270;28;20022;-58
2021/12/27 08:42:25;;;;;;;23.13;8.63;;;4.20;99.90;;;;;;5031959;28;20026;-58
2021/12/27 08:44:52;;;;;;;29.23;9.02;;;4.30;99.90;;;;;;5033247;28;20083;-58
2021/12/27 08:47:18;;;;;;;24.20;9.13;;;4.30;99.90;;;;;;5033382;28;20032;-58
2021/12/27 08:49:45;;;;;;;24.77;7.97;;;4.30;99.90;;;;;;5033160;28;20021;-58
2021/12/27 08:52:10;;;;;;;23.55;9.13;;;4.30;99.90;;;;;;5032412;28;20051;-58
2021/12/27 08:54:36;;;;;;;37.08;8.68;;;4.40;99.90;;;;;;5033013;28;20096;-58
2021/12/27 08:57:04;;;;;;;20.25;7.53;;;4.40;99.90;;;;;;5032285;28;20056;-56
2021/12/27 08:59:29;;;;;;;16.67;6.68;;;4.30;99.90;;;;;;5031931;28;20060;-57
2021/12/27 09:01:55;;;;;;;27.63;8.57;;;4.30;99.90;;;;;;5033069;28;20052;-57
2021/12/27 09:04:25;;;;;;;19.42;7.20;;;4.20;99.90;;;;;;5032018;28;20029;-57
2021/12/27 09:06:51;;;;;;;24.48;8.10;;;4.30;99.90;;;;;;5031673;28;20025;-55
2021/12/27 09:09:17;;;;;;;25.05;8.35;;;4.40;99.90;;;;;;5033210;28;20075;-55
2021/12/27 09:11:43;;;;;;;21.13;8.10;;;4.50;99.90;;;;;;5031616;28;20036;-57
2021/12/27 09:14:09;;;;;;;29.75;9.82;;;4.50;99.90;;;;;;5032853;28;20037;-56
2021/12/27 09:16:34;;;;;;;35.20;9.30;;;4.60;99.90;;;;;;5032081;28;20021;-54
2021/12/27 09:19:00;;;;;;;36.08;10.10;;;4.60;99.90;;;;;;5032419;28;20108;-54
2021/12/27 09:21:26;;;;;;;37.55;11.13;;;4.60;99.90;;;;;;5031658;28;20049;-49
2021/12/27 09:23:52;;;;;;;30.85;12.20;;;4.60;99.90;;;;;;5031571;28;20022;-51
2021/12/27 09:26:21;;;;;;;26.25;9.38;;;4.60;99.90;;;;;;5032710;28;20057;-56
2021/12/27 09:28:46;;;;;;;27.40;8.57;;;4.60;99.90;;;;;;5032856;28;20109;-55
2021/12/27 09:31:12;;;;;;;18.88;8.05;;;4.70;99.90;;;;;;5032762;28;20123;-54
2021/12/27 09:33:37;;;;;;;27.90;10.35;;;4.70;99.90;;;;;;5032614;28;20032;-57
2021/12/27 09:36:03;;;;;;;21.60;8.57;;;4.80;99.90;;;;;;5031665;28;20052;-55
2021/12/27 09:38:29;;;;;;;18.85;7.43;;;4.80;99.90;;;;;;5033330;28;20021;-52
2021/12/27 09:40:55;;;;;;;20.85;9.05;;;4.80;99.90;;;;;;5035051;28;20017;-53
2021/12/27 09:43:22;;;;;;;20.85;7.93;;;4.80;99.90;;;;;;5036212;28;20028;-57
2021/12/27 09:45:48;;;;;;;17.38;8.23;;;4.90;99.90;;;;;;5035039;28;20026;-56
2021/12/27 09:48:13;;;;;;;19.85;8.90;;;4.90;99.90;;;;;;5036249;28;20035;-54
2021/12/27 09:50:46;;;;;;;22.13;9.40;;;4.90;99.90;;;;;;5036077;28;20033;-52
2021/12/27 09:53:12;;;;;;;23.10;8.60;;;4.90;99.90;;;;;;5036073;28;20032;-51
2021/12/27 09:55:38;;;;;;;18.98;7.50;;;4.90;99.90;;;;;;5035916;28;20089;-55
2021/12/27 09:58:05;;;;;;;15.80;7.38;;;4.80;99.90;;;;;;5034730;28;20021;-56
2021/12/27 10:00:31;;;;;;;21.85;8.38;;;4.80;99.90;;;;;;5034639;28;20435;-55
2021/12/27 10:02:59;;;;;;;21.95;7.78;;;4.80;99.90;;;;;;5035956;28;20017;-53
2021/12/27 10:05:27;;;;;;;21.42;7.90;;;4.80;99.90;;;;;;5033987;28;20087;-51
2021/12/27 10:07:53;;;;;;;20.27;8.57;;;4.90;99.90;;;;;;5035782;28;20017;-52
2021/12/27 10:10:19;;;;;;;18.65;8.02;;;4.90;99.90;;;;;;5034542;28;20164;-57
2021/12/27 10:12:47;;;;;;;16.88;7.93;;;4.90;99.90;;;;;;5035762;28;20034;-56
2021/12/27 10:15:17;;;;;;;26.75;10.57;;;4.90;99.90;;;;;;5022647;28;20121;-56
2021/12/27 10:17:43;;;;;;;22.52;8.90;;;5.00;99.90;;;;;;5015288;28;20022;-57
2021/12/27 10:20:18;;;;;;;18.90;8.50;;;5.10;99.90;;;;;;5034297;28;20021;-56
2021/12/27 10:22:48;;;;;;;21.08;8.13;;;5.00;99.90;;;;;;5035547;28;20539;-56
2021/12/27 10:25:19;;;;;;;23.38;9.38;;;5.10;99.90;;;;;;5033992;28;20025;-57
2021/12/27 10:27:46;;;;;;;25.15;9.32;;;5.10;99.90;;;;;;5035373;28;20487;-58
2021/12/27 10:30:16;;;;;;;24.00;8.75;;;5.20;99.90;;;;;;5035314;28;20053;-55
2021/12/27 10:32:42;;;;;;;21.65;8.98;;;5.20;99.90;;;;;;5034915;28;20022;-57
2021/12/27 10:35:09;;;;;;;25.73;9.98;;;5.20;99.90;;;;;;5026115;28;20033;-57
2021/12/27 10:37:37;;;;;;;25.13;11.00;;;5.10;99.90;;;;;;5014935;28;20033;-56
2021/12/27 10:40:12;;;;;;;26.98;11.02;;;5.00;99.90;;;;;;5015468;28;20026;-58
2021/12/27 10:42:40;;;;;;;21.02;9.48;;;5.10;99.90;;;;;;5014201;28;20049;-57
2021/12/27 10:45:19;;;;;;;28.35;11.43;;;5.00;99.90;;;;;;5013891;28;20025;-58
2021/12/27 10:47:51;;;;;;;22.92;9.75;;;5.00;99.90;;;;;;5028683;28;20087;-58
2021/12/27 10:50:24;;;;;;;24.73;10.60;;;4.90;99.90;;;;;;5032779;28;20025;-56
2021/12/27 10:52:59;;;;;;;24.48;10.27;;;5.00;99.90;;;;;;5030686;28;20548;-55
2021/12/27 10:55:39;;;;;;;22.30;9.02;;;5.00;99.90;;;;;;5016040;28;20029;-57
2021/12/27 10:58:28;;;;;;;24.20;9.98;;;5.10;99.90;;;;;;5015098;28;20018;-55
2021/12/27 11:01:07;;;;;;;24.27;9.65;;;5.20;99.90;;;;;;5005751;28;20106;-57
2021/12/27 11:03:42;;;;;;;23.05;9.40;;;5.40;99.90;;;;;;5033304;28;20025;-57
2021/12/27 11:06:10;;;;;;;19.30;7.70;;;5.50;99.90;;;;;;5032984;28;20026;-57
2021/12/27 11:08:42;;;;;;;14.25;7.07;;;5.40;99.90;;;;;;5026576;28;20026;-56
2021/12/27 11:11:08;;;;;;;21.58;8.40;;;5.40;99.90;;;;;;5027890;28;20100;-58
2021/12/27 11:13:34;;;;;;;18.35;8.73;;;5.50;99.90;;;;;;5033176;28;20033;-55
2021/12/27 11:16:00;;;;;;;15.48;7.55;;;5.60;99.90;;;;;;5023162;28;20100;-56
2021/12/27 11:18:26;;;;;;;13.65;7.32;;;5.60;99.90;;;;;;5030595;28;20028;-56
2021/12/27 11:20:57;;;;;;;18.83;7.60;;;5.70;99.90;;;;;;5026019;28;20101;-56
2021/12/27 11:23:25;;;;;;;12.18;6.43;;;5.70;99.90;;;;;;5033135;28;20022;-58
2021/12/27 11:26:07;;;;;;;18.65;7.68;;;5.70;99.90;;;;;;5034211;28;20025;-57
2021/12/27 11:28:41;;;;;;;16.05;8.07;;;5.80;99.90;;;;;;5034689;28;20022;-58
2021/12/27 11:31:28;;;;;;;13.07;6.90;;;5.80;99.90;;;;;;5034240;28;20056;-59
2021/12/27 11:34:00;;;;;;;15.98;7.18;;;5.70;99.90;;;;;;5034106;28;20030;-56
2021/12/27 11:36:31;;;;;;;14.20;6.28;;;5.70;99.90;;;;;;5014713;28;20021;-55
2021/12/27 11:38:59;;;;;;;17.30;8.23;;;5.60;99.90;;;;;;5014515;28;20141;-56
2021/12/27 11:41:32;;;;;;;20.45;9.57;;;5.60;99.90;;;;;;5014330;28;20029;-54
2021/12/27 11:44:09;;;;;;;15.32;8.38;;;5.60;99.90;;;;;;5013153;28;20026;-55
2021/12/27 11:46:46;;;;;;;24.52;9.88;;;5.60;99.90;;;;;;5012960;28;20026;-58
2021/12/27 11:49:13;;;;;;;21.65;8.98;;;5.60;99.90;;;;;;5014528;28;20104;-58
2021/12/27 11:51:40;;;;;;;22.38;8.55;;;5.60;99.90;;;;;;5015019;28;20034;-58
2021/12/27 11:54:27;;;;;;;18.73;8.30;;;5.60;99.90;;;;;;5012912;28;20487;-55
2021/12/27 11:56:54;;;;;;;17.52;8.38;;;5.60;99.90;;;;;;5014214;28;20018;-57
2021/12/27 11:59:22;;;;;;;18.85;9.35;;;5.60;99.90;;;;;;5014006;28;20082;-54
2021/12/27 12:01:50;;;;;;;28.30;8.68;;;5.60;99.90;;;;;;5014119;28;20472;-57
2021/12/27 12:04:40;;;;;;;24.52;9.27;;;5.60;99.90;;;;;;5014245;28;20049;-53
2021/12/27 12:07:07;;;;;;;22.70;9.90;;;5.60;99.90;;;;;;5016362;28;20025;-57
2021/12/27 12:09:46;;;;;;;21.08;9.45;;;5.60;99.90;;;;;;5032334;28;20029;-56
2021/12/27 12:12:14;;;;;;;24.33;10.38;;;5.60;99.90;;;;;;5033642;28;20031;-55
2021/12/27 12:14:41;;;;;;;21.48;9.43;;;5.70;99.90;;;;;;5016502;28;20104;-57
2021/12/27 12:17:14;;;;;;;19.63;9.05;;;5.80;99.90;;;;;;5013711;28;20018;-53
2021/12/27 12:19:50;;;;;;;23.63;9.10;;;5.80;99.90;;;;;;5012649;28;20033;-57
2021/12/27 12:22:31;;;;;;;24.10;10.52;;;5.80;99.90;;;;;;5013743;28;20101;-57
2021/12/27 12:25:22;;;;;;;20.85;9.75;;;5.90;99.90;;;;;;5013960;28;20029;-56
2021/12/27 12:28:00;;;;;;;18.63;8.75;;;6.10;99.90;;;;;;5013796;28;20442;-57
2021/12/27 12:30:33;;;;;;;17.02;8.18;;;6.20;99.90;;;;;;5013975;28;20022;-58
2021/12/27 12:33:08;;;;;;;16.23;8.68;;;6.30;99.90;;;;;;5013061;28;20033;-57
2021/12/27 12:35:38;;;;;;;15.80;7.63;;;6.30;99.90;;;;;;5027057;28;20147;-53
2021/12/27 12:38:24;;;;;;;17.52;8.40;;;6.20;99.90;;;;;;5052154;28;20020;-56
2021/12/27 12:41:17;;;;;;;17.33;9.10;;;6.20;99.90;;;;;;5052334;28;20349;-57
2021/12/27 12:43:56;;;;;;;14.43;7.22;;;6.20;99.90;;;;;;5051673;28;20543;-55
2021/12/27 12:46:38;;;;;;;17.05;7.88;;;6.20;99.90;;;;;;5042737;28;20029;-56
2021/12/27 12:49:12;;;;;;;18.52;8.07;;;6.20;99.90;;;;;;5012435;28;20037;-57
2021/12/27 12:51:41;;;;;;;16.63;8.10;;;6.20;99.90;;;;;;5015121;28;20042;-58